sensor_id;sensor_type;location;lat;lon;timestamp;pressure;altitude;pressure_sealevel;temperature;humidity
48386;BME280;34644;47.964;7.982;2023-03-04T00:05:56;97051.34;;;14.32;51.65
48386;BME280;34644;47.964;7.982;2023-03-04T00:12:57;97069.91;;;14.32;51.91
48386;BME280;34644;47.964;7.982;2023-03-04T00:19:57;97052.44;;;14.31;51.95
48386;BME280;34644;47.964;7.982;2023-03-04T00:26:58;97052.69;;;14.29;52.04
48386;BME280;34644;47.964;7.982;2023-03-04T00:33:58;97064.31;;;14.28;52.00
48386;BME280;34644;47.964;7.982;2023-03-04T00:40:58;97070.41;;;14.29;52.01
48386;BME280;34644;47.964;7.982;2023-03-04T00:47:59;97083.91;;;14.27;52.19
48386;BME280;34644;47.964;7.982;2023-03-04T00:54:59;97068.81;;;14.28;52.28
48386;BME280;34644;47.964;7.982;2023-03-04T01:01:59;97059.25;;;14.27;52.40
48386;BME280;34644;47.964;7.982;2023-03-04T01:09:00;97063.53;;;14.28;52.23
48386;BME280;34644;47.964;7.982;2023-03-04T01:16:01;97055.31;;;14.29;52.19
48386;BME280;34644;47.964;7.982;2023-03-04T01:23:02;97057.72;;;14.31;52.34
48386;BME280;34644;47.964;7.982;2023-03-04T01:30:03;97050.31;;;14.33;52.44
48386;BME280;34644;47.964;7.982;2023-03-04T01:37:04;97047.66;;;14.33;52.27
48386;BME280;34644;47.964;7.982;2023-03-04T01:44:04;97041.31;;;14.34;52.56
48386;BME280;34644;47.964;7.982;2023-03-04T01:51:06;97031.22;;;14.31;52.44
48386;BME280;34644;47.964;7.982;2023-03-04T01:58:10;97033.88;;;14.31;52.54
48386;BME280;34644;47.964;7.982;2023-03-04T02:05:12;97031.22;;;14.31;52.61
48386;BME280;34644;47.964;7.982;2023-03-04T02:12:13;97026.41;;;14.28;52.56
48386;BME280;34644;47.964;7.982;2023-03-04T02:19:18;97022.69;;;14.29;52.48
48386;BME280;34644;47.964;7.982;2023-03-04T02:26:21;97026.16;;;14.29;52.66
48386;BME280;34644;47.964;7.982;2023-03-04T02:33:27;97029.84;;;14.28;52.62
48386;BME280;34644;47.964;7.982;2023-03-04T02:40:28;97020.84;;;14.29;52.58
48386;BME280;34644;47.964;7.982;2023-03-04T02:47:30;97015.31;;;14.31;52.71
48386;BME280;34644;47.964;7.982;2023-03-04T02:54:31;97018.75;;;14.32;52.53
48386;BME280;34644;47.964;7.982;2023-03-04T03:01:31;97020.34;;;14.33;52.60
48386;BME280;34644;47.964;7.982;2023-03-04T03:08:32;97020.91;;;14.35;52.81
48386;BME280;34644;47.964;7.982;2023-03-04T03:15:34;97022.75;;;14.34;52.73
48386;BME280;34644;47.964;7.982;2023-03-04T03:22:35;97022.19;;;14.32;52.76
48386;BME280;34644;47.964;7.982;2023-03-04T03:29:36;97026.72;;;14.32;52.81
48386;BME280;34644;47.964;7.982;2023-03-04T03:36:36;97025.34;;;14.29;52.86
48386;BME280;34644;47.964;7.982;2023-03-04T03:43:36;97032.50;;;14.28;52.80
48386;BME280;34644;47.964;7.982;2023-03-04T03:50:37;97031.72;;;14.28;52.94
48386;BME280;34644;47.964;7.982;2023-03-04T03:57:38;97030.88;;;14.27;53.00
48386;BME280;34644;47.964;7.982;2023-03-04T04:04:38;97030.88;;;14.27;53.03
48386;BME280;34644;47.964;7.982;2023-03-04T04:11:38;97037.81;;;14.28;53.10
48386;BME280;34644;47.964;7.982;2023-03-04T04:18:39;97043.09;;;14.28;53.01
48386;BME280;34644;47.964;7.982;2023-03-04T04:25:39;97041.00;;;14.30;53.11
48386;BME280;34644;47.964;7.982;2023-03-04T04:32:39;97037.31;;;14.32;53.02
48386;BME280;34644;47.964;7.982;2023-03-04T04:39:40;97039.72;;;14.33;52.83
48386;BME280;34644;47.964;7.982;2023-03-04T04:46:40;97033.44;;;14.39;52.67
48386;BME280;34644;47.964;7.982;2023-03-04T04:53:41;97036.13;;;14.44;52.85
48386;BME280;34644;47.964;7.982;2023-03-04T05:00:41;97038.59;;;14.51;52.75
48386;BME280;34644;47.964;7.982;2023-03-04T05:07:42;97044.84;;;14.62;52.60
48386;BME280;34644;47.964;7.982;2023-03-04T05:14:42;97039.59;;;14.67;52.45
48386;BME280;34644;47.964;7.982;2023-03-04T05:21:43;97037.75;;;14.68;52.36
48386;BME280;34644;47.964;7.982;2023-03-04T05:28:43;97035.41;;;14.71;52.60
48386;BME280;34644;47.964;7.982;2023-03-04T05:35:44;97046.81;;;14.72;52.46
48386;BME280;34644;47.964;7.982;2023-03-04T05:42:45;97039.91;;;14.71;52.51
48386;BME280;34644;47.964;7.982;2023-03-04T05:49:45;97044.97;;;14.72;52.54
48386;BME280;34644;47.964;7.982;2023-03-04T05:56:45;97034.38;;;14.72;52.81
48386;BME280;34644;47.964;7.982;2023-03-04T06:03:46;97044.16;;;14.72;52.68
48386;BME280;34644;47.964;7.982;2023-03-04T06:10:50;97041.75;;;14.70;52.73
48386;BME280;34644;47.964;7.982;2023-03-04T06:17:51;97049.72;;;14.70;52.57
48386;BME280;34644;47.964;7.982;2023-03-04T06:24:51;97052.59;;;14.69;52.65
48386;BME280;34644;47.964;7.982;2023-03-04T06:31:52;97061.63;;;14.68;52.79
48386;BME280;34644;47.964;7.982;2023-03-04T06:38:52;97062.69;;;14.67;52.74
48386;BME280;34644;47.964;7.982;2023-03-04T06:45:53;97071.44;;;14.67;52.67
48386;BME280;34644;47.964;7.982;2023-03-04T06:52:55;97068.22;;;14.65;52.88
48386;BME280;34644;47.964;7.982;2023-03-04T06:59:55;97081.09;;;10.85;42.56
48386;BME280;34644;47.964;7.982;2023-03-04T07:06:55;97093.69;;;9.66;43.97
48386;BME280;34644;47.964;7.982;2023-03-04T07:13:56;97098.41;;;9.32;44.21
48386;BME280;34644;47.964;7.982;2023-03-04T07:20:56;97100.47;;;8.91;45.14
48386;BME280;34644;47.964;7.982;2023-03-04T07:27:56;97109.56;;;9.27;45.90
48386;BME280;34644;47.964;7.982;2023-03-04T07:34:57;97104.97;;;11.87;43.75
48386;BME280;34644;47.964;7.982;2023-03-04T07:41:57;97103.09;;;12.87;44.65
48386;BME280;34644;47.964;7.982;2023-03-04T07:48:57;97101.59;;;13.83;44.63
48386;BME280;34644;47.964;7.982;2023-03-04T07:55:57;97114.81;;;14.39;44.54
48386;BME280;34644;47.964;7.982;2023-03-04T08:02:58;97121.78;;;14.84;44.65
48386;BME280;34644;47.964;7.982;2023-03-04T08:09:58;97127.47;;;14.93;45.19
48386;BME280;34644;47.964;7.982;2023-03-04T08:16:59;97120.72;;;14.85;45.74
48386;BME280;34644;47.964;7.982;2023-03-04T08:23:59;97131.16;;;14.70;46.52
48386;BME280;34644;47.964;7.982;2023-03-04T08:31:01;97131.34;;;14.63;47.34
48386;BME280;34644;47.964;7.982;2023-03-04T08:38:01;97134.13;;;14.56;47.96
48386;BME280;34644;47.964;7.982;2023-03-04T08:45:02;97134.31;;;14.50;48.14
48386;BME280;34644;47.964;7.982;2023-03-04T08:52:02;97134.50;;;14.43;48.44
48386;BME280;34644;47.964;7.982;2023-03-04T08:59:03;97142.22;;;14.44;48.71
48386;BME280;34644;47.964;7.982;2023-03-04T09:06:04;97153.84;;;14.43;48.87
48386;BME280;34644;47.964;7.982;2023-03-04T09:13:04;97156.50;;;14.43;49.10
48386;BME280;34644;47.964;7.982;2023-03-04T09:20:06;97161.25;;;14.41;49.35
48386;BME280;34644;47.964;7.982;2023-03-04T09:27:07;97158.59;;;14.41;49.08
48386;BME280;34644;47.964;7.982;2023-03-04T09:34:08;97162.44;;;14.51;49.48
48386;BME280;34644;47.964;7.982;2023-03-04T09:41:22;97151.50;;;14.86;49.06
48386;BME280;34644;47.964;7.982;2023-03-04T09:48:24;97147.09;;;15.19;49.31
48386;BME280;34644;47.964;7.982;2023-03-04T09:55:31;97145.16;;;15.36;49.74
48386;BME280;34644;47.964;7.982;2023-03-04T10:02:38;97130.66;;;15.49;49.91
48386;BME280;34644;47.964;7.982;2023-03-04T10:09:49;97137.16;;;15.64;49.92
48386;BME280;34644;47.964;7.982;2023-03-04T10:16:55;97139.88;;;15.69;50.02
48386;BME280;34644;47.964;7.982;2023-03-04T10:24:06;97139.88;;;15.69;50.08
48386;BME280;34644;47.964;7.982;2023-03-04T10:31:18;97139.88;;;15.69;50.41
48386;BME280;34644;47.964;7.982;2023-03-04T10:38:20;97134.59;;;15.74;50.12
48386;BME280;34644;47.964;7.982;2023-03-04T10:45:24;97128.03;;;15.82;50.05
48386;BME280;34644;47.964;7.982;2023-03-04T10:52:29;97119.59;;;15.90;50.18
48386;BME280;34644;47.964;7.982;2023-03-04T10:59:31;97120.44;;;15.96;50.12
48386;BME280;34644;47.964;7.982;2023-03-04T11:06:32;97124.72;;;16.02;50.30
48386;BME280;34644;47.964;7.982;2023-03-04T11:13:32;97112.28;;;16.07;50.15
48386;BME280;34644;47.964;7.982;2023-03-04T11:20:34;97114.19;;;16.17;50.47
48386;BME280;34644;47.964;7.982;2023-03-04T11:34:50;97087.88;;;16.79;49.85
48386;BME280;34644;47.964;7.982;2023-03-04T11:41:57;97079.97;;;16.94;49.91
48386;BME280;34644;47.964;7.982;2023-03-04T12:10:38;97048.00;;;16.89;51.27
48386;BME280;34644;47.964;7.982;2023-03-04T12:25:13;97029.91;;;16.96;51.16
48386;BME280;34644;47.964;7.982;2023-03-04T12:39:39;97006.19;;;16.95;51.30
48386;BME280;34644;47.964;7.982;2023-03-04T13:01:13;97000.47;;;14.79;43.33
48386;BME280;34644;47.964;7.982;2023-03-04T13:29:36;96970.34;;;14.41;42.68
48386;BME280;34644;47.964;7.982;2023-03-04T13:36:58;96965.22;;;14.35;42.53
48386;BME280;34644;47.964;7.982;2023-03-04T13:43:59;96964.13;;;14.08;42.13
48386;BME280;34644;47.964;7.982;2023-03-04T13:50:59;96958.56;;;13.88;41.87
48386;BME280;34644;47.964;7.982;2023-03-04T13:58:02;96966.66;;;13.76;42.02
48386;BME280;34644;47.964;7.982;2023-03-04T14:05:12;96960.75;;;14.40;42.00
48386;BME280;34644;47.964;7.982;2023-03-04T14:12:13;96957.84;;;15.24;42.65
48386;BME280;34644;47.964;7.982;2023-03-04T14:19:37;96961.66;;;15.38;44.04
48386;BME280;34644;47.964;7.982;2023-03-04T14:26:37;96933.56;;;15.47;44.79
48386;BME280;34644;47.964;7.982;2023-03-04T14:33:38;96930.91;;;15.47;45.76
48386;BME280;34644;47.964;7.982;2023-03-04T14:40:44;96917.41;;;15.59;47.07
48386;BME280;34644;47.964;7.982;2023-03-04T14:47:47;96924.09;;;15.67;47.75
48386;BME280;34644;47.964;7.982;2023-03-04T14:54:58;96920.38;;;15.68;48.43
48386;BME280;34644;47.964;7.982;2023-03-04T15:02:19;96920.66;;;15.71;48.66
48386;BME280;34644;47.964;7.982;2023-03-04T15:09:21;96914.28;;;15.72;49.01
48386;BME280;34644;47.964;7.982;2023-03-04T15:16:23;96911.63;;;15.72;49.31
48386;BME280;34644;47.964;7.982;2023-03-04T15:23:25;96907.34;;;15.18;45.80
48386;BME280;34644;47.964;7.982;2023-03-04T15:30:27;96903.84;;;15.55;47.27
48386;BME280;34644;47.964;7.982;2023-03-04T15:37:27;96905.22;;;15.63;48.68
48386;BME280;34644;47.964;7.982;2023-03-04T15:44:28;96904.97;;;15.65;49.41
48386;BME280;34644;47.964;7.982;2023-03-04T15:51:28;96907.34;;;15.66;50.03
48386;BME280;34644;47.964;7.982;2023-03-04T15:58:29;96903.91;;;15.66;50.31
48386;BME280;34644;47.964;7.982;2023-03-04T16:05:30;96911.06;;;15.65;50.78
48386;BME280;34644;47.964;7.982;2023-03-04T16:12:30;96916.09;;;15.62;50.88
48386;BME280;34644;47.964;7.982;2023-03-04T16:19:31;96909.44;;;15.59;51.16
48386;BME280;34644;47.964;7.982;2023-03-04T16:26:31;96913.44;;;15.62;51.61
48386;BME280;34644;47.964;7.982;2023-03-04T16:33:32;96914.56;;;15.76;51.53
48386;BME280;34644;47.964;7.982;2023-03-04T16:40:32;96906.72;;;15.97;51.35
48386;BME280;34644;47.964;7.982;2023-03-04T16:47:33;96915.25;;;16.09;50.90
48386;BME280;34644;47.964;7.982;2023-03-04T16:54:34;96924.88;;;16.25;50.51
48386;BME280;34644;47.964;7.982;2023-03-04T17:01:35;96923.34;;;16.40;50.18
48386;BME280;34644;47.964;7.982;2023-03-04T17:08:35;96929.19;;;16.42;50.32
48386;BME280;34644;47.964;7.982;2023-03-04T17:15:36;96940.31;;;16.28;50.70
48386;BME280;34644;47.964;7.982;2023-03-04T17:22:36;96954.13;;;16.25;51.01
48386;BME280;34644;47.964;7.982;2023-03-04T17:29:36;96958.13;;;16.18;51.21
48386;BME280;34644;47.964;7.982;2023-03-04T17:36:37;96963.41;;;16.13;51.38
48386;BME280;34644;47.964;7.982;2023-03-04T17:43:38;96974.50;;;15.99;51.89
48386;BME280;34644;47.964;7.982;2023-03-04T17:50:49;96975.81;;;15.91;52.11
48386;BME280;34644;47.964;7.982;2023-03-04T17:57:50;96978.97;;;15.83;52.54
48386;BME280;34644;47.964;7.982;2023-03-04T18:04:52;96978.94;;;15.78;52.81
48386;BME280;34644;47.964;7.982;2023-03-04T18:11:52;96981.78;;;15.71;53.24
48386;BME280;34644;47.964;7.982;2023-03-04T18:18:53;96986.56;;;15.69;53.64
48386;BME280;34644;47.964;7.982;2023-03-04T18:25:54;96988.38;;;15.64;53.21
48386;BME280;34644;47.964;7.982;2023-03-04T18:32:55;96986.22;;;15.61;53.83
48386;BME280;34644;47.964;7.982;2023-03-04T18:39:55;97001.88;;;15.57;52.96
48386;BME280;34644;47.964;7.982;2023-03-04T18:46:56;97001.34;;;15.55;53.05
48386;BME280;34644;47.964;7.982;2023-03-04T18:53:57;97003.72;;;15.51;52.92
48386;BME280;34644;47.964;7.982;2023-03-04T19:00:57;97010.06;;;15.50;53.00
48386;BME280;34644;47.964;7.982;2023-03-04T19:07:59;97014.84;;;15.48;53.16
48386;BME280;34644;47.964;7.982;2023-03-04T19:14:59;97022.50;;;15.45;53.50
48386;BME280;34644;47.964;7.982;2023-03-04T19:21:59;97019.56;;;15.41;53.53
48386;BME280;34644;47.964;7.982;2023-03-04T19:28:59;97022.72;;;15.38;53.92
48386;BME280;34644;47.964;7.982;2023-03-04T19:36:00;97025.63;;;15.36;53.94
48386;BME280;34644;47.964;7.982;2023-03-04T19:43:02;97017.13;;;15.34;54.15
48386;BME280;34644;47.964;7.982;2023-03-04T19:50:03;97015.78;;;15.32;54.26
48386;BME280;34644;47.964;7.982;2023-03-04T19:57:03;97017.63;;;15.31;54.41
48386;BME280;34644;47.964;7.982;2023-03-04T20:04:08;97013.63;;;15.29;54.61
48386;BME280;34644;47.964;7.982;2023-03-04T20:11:11;97004.31;;;15.26;54.82
48386;BME280;34644;47.964;7.982;2023-03-04T20:18:13;97008.28;;;15.24;54.82
48386;BME280;34644;47.964;7.982;2023-03-04T20:25:13;97014.63;;;15.23;55.14
48386;BME280;34644;47.964;7.982;2023-03-04T20:32:13;97008.78;;;15.20;55.04
48386;BME280;34644;47.964;7.982;2023-03-04T20:39:14;97013.00;;;15.16;55.25
48386;BME280;34644;47.964;7.982;2023-03-04T20:53:30;97010.28;;;15.11;55.11
48386;BME280;34644;47.964;7.982;2023-03-04T21:00:30;97012.41;;;15.09;55.09
48386;BME280;34644;47.964;7.982;2023-03-04T21:07:30;97003.91;;;15.07;55.30
48386;BME280;34644;47.964;7.982;2023-03-04T21:14:31;97000.44;;;13.69;47.61
48386;BME280;34644;47.964;7.982;2023-03-04T21:21:32;96999.75;;;14.62;49.91
48386;BME280;34644;47.964;7.982;2023-03-04T21:28:32;97003.06;;;14.74;51.91
48386;BME280;34644;47.964;7.982;2023-03-04T21:35:33;97004.41;;;14.77;52.43
48386;BME280;34644;47.964;7.982;2023-03-04T21:42:33;96991.94;;;14.77;53.05
48386;BME280;34644;47.964;7.982;2023-03-04T21:49:33;96988.22;;;14.78;53.20
48386;BME280;34644;47.964;7.982;2023-03-04T21:56:34;96974.19;;;14.78;53.30
48386;BME280;34644;47.964;7.982;2023-03-04T22:03:34;96976.03;;;14.77;53.37
48386;BME280;34644;47.964;7.982;2023-03-04T22:10:35;96983.16;;;14.77;53.51
48386;BME280;34644;47.964;7.982;2023-03-04T22:17:36;96977.06;;;14.76;53.39
48386;BME280;34644;47.964;7.982;2023-03-04T22:24:36;96966.72;;;14.75;53.51
48386;BME280;34644;47.964;7.982;2023-03-04T22:31:36;96965.94;;;14.74;53.53
48386;BME280;34644;47.964;7.982;2023-03-04T22:38:37;96972.28;;;14.73;53.71
48386;BME280;34644;47.964;7.982;2023-03-04T22:45:37;96959.25;;;14.72;53.74
48386;BME280;34644;47.964;7.982;2023-03-04T22:52:38;96956.84;;;14.70;53.57
48386;BME280;34644;47.964;7.982;2023-03-04T22:59:40;96952.63;;;14.69;53.79
48386;BME280;34644;47.964;7.982;2023-03-04T23:06:40;96955.28;;;14.69;53.81
48386;BME280;34644;47.964;7.982;2023-03-04T23:13:40;96951.00;;;14.68;53.63
48386;BME280;34644;47.964;7.982;2023-03-04T23:20:41;96946.50;;;14.69;53.90
48386;BME280;34644;47.964;7.982;2023-03-04T23:27:43;96946.75;;;14.67;54.01
48386;BME280;34644;47.964;7.982;2023-03-04T23:34:43;96949.66;;;14.65;53.99
48386;BME280;34644;47.964;7.982;2023-03-04T23:41:43;96951.25;;;14.67;54.04
48386;BME280;34644;47.964;7.982;2023-03-04T23:48:44;96946.19;;;14.65;54.02
48386;BME280;34644;47.964;7.982;2023-03-04T23:55:45;96935.59;;;14.65;53.83
